Time;durP1;ratioP1;P1;durP2;ratioP2;P2;SDS_P1;SDS_P2;PMS_P1;PMS_P2;Temp;Humidity;BMP_temperature;BMP_pressure;BME280_temperature;BME280_humidity;BME280_pressure;Samples;Min_cycle;Max_cycle;Signal;HPM_P1;HPM_P2
2022/07/31 00:00:19;;;;;;;12.95;7.65;;;19.80;99.90;;;;;;5007298;28;20034;-61
2022/07/31 00:02:45;;;;;;;9.32;6.35;;;19.80;99.90;;;;;;4999633;28;20141;-62
2022/07/31 00:05:11;;;;;;;14.20;7.18;;;19.80;99.90;;;;;;5010608;28;20109;-62
2022/07/31 00:07:37;;;;;;;15.32;8.35;;;19.70;99.90;;;;;;5006355;28;20109;-59
2022/07/31 00:10:04;;;;;;;10.90;6.93;;;19.60;99.90;;;;;;5006862;28;20136;-61
2022/07/31 00:12:29;;;;;;;10.43;6.13;;;19.60;99.90;;;;;;5006867;28;20101;-61
2022/07/31 00:14:55;;;;;;;10.57;5.88;;;19.50;99.90;;;;;;5010332;28;20117;-61
2022/07/31 00:17:20;;;;;;;11.35;6.45;;;19.50;99.90;;;;;;5004770;28;20023;-61
2022/07/31 00:19:46;;;;;;;17.13;9.95;;;19.50;99.90;;;;;;5009801;28;20488;-60
2022/07/31 00:22:12;;;;;;;10.13;7.15;;;19.50;99.90;;;;;;5010740;28;20030;-60
2022/07/31 00:24:38;;;;;;;20.65;12.05;;;19.50;99.90;;;;;;5009889;28;20053;-61
2022/07/31 00:27:04;;;;;;;21.52;12.00;;;19.50;99.90;;;;;;5007194;28;20034;-61
2022/07/31 00:29:30;;;;;;;15.25;8.55;;;19.50;99.90;;;;;;5012002;28;20408;-60
2022/07/31 00:31:55;;;;;;;13.57;7.03;;;19.50;99.90;;;;;;5004667;28;20034;-58
2022/07/31 00:34:22;;;;;;;11.48;6.75;;;19.40;99.90;;;;;;5010242;28;20146;-60
2022/07/31 00:36:47;;;;;;;9.95;5.65;;;19.50;99.90;;;;;;5008305;28;20548;-60
2022/07/31 00:39:13;;;;;;;9.02;5.50;;;19.40;99.90;;;;;;5010267;28;20117;-60
2022/07/31 00:41:41;;;;;;;9.30;5.80;;;19.40;99.90;;;;;;5005828;28;20033;-58
2022/07/31 00:44:08;;;;;;;11.25;6.57;;;19.30;99.90;;;;;;5005854;28;20049;-59
2022/07/31 00:46:33;;;;;;;7.90;5.18;;;19.30;99.90;;;;;;5008992;28;20031;-60
2022/07/31 00:48:59;;;;;;;9.13;5.60;;;19.30;99.90;;;;;;5010031;28;20045;-59
2022/07/31 00:51:24;;;;;;;9.05;6.60;;;19.20;99.90;;;;;;5009368;28;20084;-57
2022/07/31 00:53:50;;;;;;;11.25;5.97;;;19.20;99.90;;;;;;5009173;28;20562;-61
2022/07/31 00:56:15;;;;;;;9.80;5.57;;;19.10;99.90;;;;;;5006710;28;20399;-61
2022/07/31 00:58:41;;;;;;;13.52;5.25;;;19.10;99.90;;;;;;5011017;28;20479;-61
2022/07/31 01:01:06;;;;;;;9.27;5.40;;;19.00;99.90;;;;;;5007531;28;20100;-60
2022/07/31 01:03:32;;;;;;;8.85;5.53;;;19.00;99.90;;;;;;5007595;28;20041;-61
2022/07/31 01:05:57;;;;;;;17.75;5.40;;;18.90;99.90;;;;;;5010028;28;20737;-61
2022/07/31 01:08:23;;;;;;;11.02;6.57;;;18.90;99.90;;;;;;5009738;28;20079;-60
2022/07/31 01:11:05;;;;;;;10.52;5.57;;;18.90;99.90;;;;;;5007664;28;20034;-60
2022/07/31 01:13:38;;;;;;;9.63;5.97;;;18.80;99.90;;;;;;5008861;28;20476;-61
2022/07/31 01:16:05;;;;;;;8.23;5.45;;;18.80;99.90;;;;;;5002292;28;20044;-59
2022/07/31 01:18:35;;;;;;;14.63;5.38;;;18.80;99.90;;;;;;5002791;28;20025;-60
2022/07/31 01:21:06;;;;;;;8.75;5.22;;;18.70;99.90;;;;;;5004474;28;20393;-59
2022/07/31 01:24:01;;;;;;;9.63;5.00;;;18.70;99.90;;;;;;5002403;28;20751;-60
2022/07/31 01:26:46;;;;;;;8.07;5.25;;;18.60;99.90;;;;;;5005148;28;20026;-58
2022/07/31 01:29:31;;;;;;;5.93;4.82;;;18.60;99.90;;;;;;5007528;28;20504;-61
2022/07/31 01:32:06;;;;;;;6.90;4.95;;;18.60;99.90;;;;;;5007187;28;20030;-60
2022/07/31 01:34:43;;;;;;;7.68;5.28;;;18.60;99.90;;;;;;5006148;28;20030;-60
2022/07/31 01:37:19;;;;;;;9.02;5.65;;;18.50;99.90;;;;;;5002500;28;20121;-60
2022/07/31 01:39:51;;;;;;;10.60;5.93;;;18.50;99.90;;;;;;5000780;28;20400;-61
2022/07/31 01:42:18;;;;;;;7.65;4.85;;;18.40;99.90;;;;;;5005189;28;20084;-59
2022/07/31 01:44:49;;;;;;;11.43;6.72;;;18.40;99.90;;;;;;5006642;28;20025;-59
2022/07/31 01:47:18;;;;;;;8.60;6.07;;;18.30;99.90;;;;;;5008692;28;20088;-61
2022/07/31 01:49:45;;;;;;;10.85;6.13;;;18.20;99.90;;;;;;5005983;28;20522;-60
2022/07/31 01:52:13;;;;;;;8.68;5.72;;;18.20;99.90;;;;;;5004244;28;20109;-61
2022/07/31 01:54:39;;;;;;;10.18;6.20;;;18.20;99.90;;;;;;5004258;28;20030;-61
2022/07/31 01:57:06;;;;;;;8.07;6.28;;;18.20;99.90;;;;;;5005151;28;20153;-61
2022/07/31 01:59:33;;;;;;;7.25;5.75;;;18.20;99.90;;;;;;4996431;28;20022;-60
2022/07/31 02:02:00;;;;;;;13.23;5.90;;;18.20;99.90;;;;;;5004905;28;20049;-61
2022/07/31 02:04:26;;;;;;;12.05;6.07;;;18.10;99.90;;;;;;5008258;28;20065;-61
2022/07/31 02:06:53;;;;;;;12.02;6.43;;;18.20;99.90;;;;;;5008655;28;20484;-61
2022/07/31 02:09:19;;;;;;;10.35;5.65;;;18.10;99.90;;;;;;5007032;28;20026;-60
2022/07/31 02:11:46;;;;;;;9.88;5.53;;;18.10;99.90;;;;;;5007784;28;20040;-61
2022/07/31 02:14:15;;;;;;;9.25;5.90;;;18.10;99.90;;;;;;5007962;28;20026;-61
2022/07/31 02:16:41;;;;;;;10.82;4.78;;;18.10;99.90;;;;;;5007401;28;20393;-60
2022/07/31 02:19:07;;;;;;;13.18;5.65;;;18.10;99.90;;;;;;5008374;28;20030;-61
2022/07/31 02:21:33;;;;;;;9.98;5.00;;;18.10;99.90;;;;;;5008252;28;20104;-61
2022/07/31 02:23:59;;;;;;;8.43;5.20;;;18.00;99.90;;;;;;5008762;28;20105;-61
2022/07/31 02:26:26;;;;;;;9.70;5.20;;;18.00;99.90;;;;;;5010469;28;20381;-61
2022/07/31 02:28:53;;;;;;;9.35;6.10;;;18.00;99.90;;;;;;5011329;28;20109;-58
2022/07/31 02:31:21;;;;;;;9.80;5.60;;;18.00;99.90;;;;;;5009369;28;20058;-61
2022/07/31 02:33:47;;;;;;;7.93;5.30;;;18.00;99.90;;;;;;5012563;28;20032;-61
2022/07/31 02:36:14;;;;;;;10.18;6.43;;;18.00;99.90;;;;;;5010181;28;20038;-59
2022/07/31 02:38:41;;;;;;;10.02;6.25;;;18.00;99.90;;;;;;5012846;28;20041;-61
2022/07/31 02:41:10;;;;;;;8.88;5.60;;;18.00;99.90;;;;;;5008064;28;20109;-59
2022/07/31 02:43:37;;;;;;;9.60;6.05;;;18.00;99.90;;;;;;5009340;28;20030;-58
2022/07/31 02:46:04;;;;;;;9.20;5.78;;;18.00;99.90;;;;;;5007946;28;20030;-59
2022/07/31 02:48:31;;;;;;;9.77;5.95;;;18.00;99.90;;;;;;5007048;28;20514;-60
2022/07/31 02:50:57;;;;;;;12.82;6.15;;;18.00;99.90;;;;;;5012403;28;20037;-61
2022/07/31 02:53:24;;;;;;;9.63;5.60;;;18.00;99.90;;;;;;5004767;28;20032;-61
2022/07/31 02:55:51;;;;;;;9.02;6.25;;;18.00;99.90;;;;;;5012420;28;20492;-61
2022/07/31 02:58:16;;;;;;;8.82;5.47;;;18.10;99.90;;;;;;5010216;28;20109;-61
2022/07/31 03:00:42;;;;;;;9.35;5.63;;;18.10;99.90;;;;;;5010061;28;20164;-61
2022/07/31 03:03:07;;;;;;;8.95;5.65;;;18.20;99.90;;;;;;5011222;28;20392;-61
2022/07/31 03:05:33;;;;;;;6.97;5.15;;;18.40;99.90;;;;;;5010478;28;20029;-61
2022/07/31 03:07:58;;;;;;;7.28;5.00;;;18.50;99.90;;;;;;5012933;28;20040;-61
2022/07/31 03:10:24;;;;;;;7.40;5.35;;;18.50;99.90;;;;;;5009316;28;20033;-60
2022/07/31 03:12:52;;;;;;;11.77;5.95;;;18.50;99.90;;;;;;5012062;28;20041;-61
2022/07/31 03:15:20;;;;;;;8.13;4.95;;;18.50;99.90;;;;;;5008454;28;20029;-61
2022/07/31 03:17:47;;;;;;;6.75;5.13;;;18.50;99.90;;;;;;5009510;28;20022;-61
2022/07/31 03:20:14;;;;;;;9.25;5.28;;;18.50;99.90;;;;;;5011704;28;20036;-61
2022/07/31 03:22:41;;;;;;;6.95;4.65;;;18.50;99.90;;;;;;5012672;28;20088;-61
2022/07/31 03:25:08;;;;;;;11.50;5.55;;;18.50;99.90;;;;;;5010962;28;20062;-61
2022/07/31 03:27:34;;;;;;;8.50;5.55;;;18.50;99.90;;;;;;5012150;28;20014;-61
2022/07/31 03:29:59;;;;;;;11.10;5.25;;;18.40;99.90;;;;;;5011565;28;20033;-60
2022/07/31 03:32:25;;;;;;;7.05;4.80;;;18.40;99.90;;;;;;5010739;28;20045;-61
2022/07/31 03:34:50;;;;;;;7.75;5.38;;;18.50;99.90;;;;;;5011661;28;20076;-61
2022/07/31 03:37:16;;;;;;;7.30;5.03;;;18.40;99.90;;;;;;5012211;28;20038;-60
2022/07/31 03:39:41;;;;;;;11.52;5.75;;;18.40;99.90;;;;;;5010964;28;20552;-61
2022/07/31 03:42:10;;;;;;;11.38;5.75;;;18.30;99.90;;;;;;5011820;28;20022;-61
2022/07/31 03:44:38;;;;;;;9.00;5.72;;;18.30;99.90;;;;;;5012090;28;20041;-61
2022/07/31 03:47:03;;;;;;;10.38;6.47;;;18.30;99.90;;;;;;5011406;28;20493;-61
2022/07/31 03:49:31;;;;;;;8.30;6.15;;;18.30;99.90;;;;;;5011676;28;20034;-60
2022/07/31 03:51:57;;;;;;;10.57;6.32;;;18.30;99.90;;;;;;5011400;28;20105;-61
2022/07/31 03:54:23;;;;;;;10.48;6.03;;;18.30;99.90;;;;;;5011364;28;20173;-61
2022/07/31 03:56:50;;;;;;;10.95;5.72;;;18.30;99.90;;;;;;5010116;28;20029;-61
2022/07/31 03:59:17;;;;;;;11.45;6.47;;;18.30;99.90;;;;;;5011244;28;20034;-60
2022/07/31 04:01:44;;;;;;;12.60;6.55;;;18.30;99.90;;;;;;5008887;28;20026;-61
2022/07/31 04:04:10;;;;;;;10.18;6.80;;;18.30;99.90;;;;;;5010395;28;20037;-61
2022/07/31 04:06:35;;;;;;;8.18;6.43;;;18.30;99.90;;;;;;5006140;28;20538;-60
2022/07/31 04:09:01;;;;;;;11.05;5.70;;;18.40;99.90;;;;;;5008521;28;20034;-61
2022/07/31 04:11:27;;;;;;;8.35;5.65;;;18.40;99.90;;;;;;4998603;28;20473;-61
2022/07/31 04:13:53;;;;;;;11.77;6.00;;;18.40;99.90;;;;;;5000025;28;20046;-60
2022/07/31 04:16:19;;;;;;;11.65;6.65;;;18.50;99.90;;;;;;5004061;28;20160;-59
2022/07/31 04:18:44;;;;;;;11.52;6.35;;;18.40;99.90;;;;;;5007108;28;20437;-61
2022/07/31 04:21:10;;;;;;;8.60;5.82;;;18.40;99.90;;;;;;5007965;28;20520;-61
2022/07/31 04:23:35;;;;;;;11.82;5.63;;;18.40;99.90;;;;;;5000124;28;20680;-61
2022/07/31 04:26:01;;;;;;;8.05;6.00;;;18.30;99.90;;;;;;5007310;28;20041;-60
2022/07/31 04:28:26;;;;;;;9.25;5.82;;;18.30;99.90;;;;;;5006301;28;20026;-59
2022/07/31 04:30:52;;;;;;;9.32;5.97;;;18.30;99.90;;;;;;5007485;28;20094;-58
2022/07/31 04:33:18;;;;;;;9.15;5.90;;;18.40;99.90;;;;;;5006573;28;20053;-59
2022/07/31 04:35:43;;;;;;;9.63;5.95;;;18.40;99.90;;;;;;5007225;28;20033;-60
2022/07/31 04:38:10;;;;;;;8.73;6.22;;;18.50;99.90;;;;;;5003223;28;20041;-60
2022/07/31 04:40:36;;;;;;;8.77;5.90;;;18.50;99.90;;;;;;5009926;28;20109;-59
2022/07/31 04:43:02;;;;;;;8.55;5.85;;;18.50;99.90;;;;;;5004197;28;20190;-60
2022/07/31 04:45:27;;;;;;;9.18;6.25;;;18.50;99.90;;;;;;5006818;28;20026;-61
2022/07/31 04:47:53;;;;;;;9.15;6.38;;;18.50;99.90;;;;;;5001562;28;20045;-60
2022/07/31 04:50:19;;;;;;;9.13;6.55;;;18.60;99.90;;;;;;5005864;28;20029;-59
2022/07/31 04:52:44;;;;;;;7.18;5.28;;;18.60;99.90;;;;;;4996002;28;20113;-59
2022/07/31 04:55:10;;;;;;;8.80;5.57;;;18.60;99.90;;;;;;5003307;28;20025;-59
2022/07/31 04:57:35;;;;;;;12.40;5.40;;;18.70;99.90;;;;;;5006283;28;20377;-61
2022/07/31 05:00:01;;;;;;;11.43;5.82;;;18.70;99.90;;;;;;5006155;28;20041;-61
2022/07/31 05:02:27;;;;;;;10.73;5.80;;;18.80;99.90;;;;;;5010455;28;20026;-60
2022/07/31 05:04:52;;;;;;;8.60;5.40;;;18.80;99.90;;;;;;5010310;28;20032;-61
2022/07/31 05:07:18;;;;;;;9.57;6.38;;;18.90;99.90;;;;;;5005250;28;20030;-61
2022/07/31 05:09:43;;;;;;;9.05;5.78;;;18.90;99.90;;;;;;5010126;28;20480;-61
2022/07/31 05:12:09;;;;;;;9.82;6.28;;;18.90;99.90;;;;;;5007275;28;20511;-61
2022/07/31 05:14:35;;;;;;;7.95;5.10;;;19.00;99.90;;;;;;5007309;28;20477;-61
2022/07/31 05:17:00;;;;;;;8.05;5.32;;;19.00;99.90;;;;;;5006898;28;20479;-61
2022/07/31 05:19:28;;;;;;;5.30;4.78;;;19.10;99.90;;;;;;5010269;28;20034;-61
2022/07/31 05:21:55;;;;;;;7.90;4.15;;;19.10;99.90;;;;;;5008589;28;20026;-61
2022/07/31 05:24:21;;;;;;;5.70;4.20;;;19.20;99.90;;;;;;5009770;28;20028;-61
2022/07/31 05:26:47;;;;;;;6.78;3.80;;;19.40;99.90;;;;;;4999684;23;1035505;-61
2022/07/31 05:29:13;;;;;;;6.68;3.67;;;19.50;99.90;;;;;;5026354;28;20091;-62
2022/07/31 05:31:38;;;;;;;6.68;3.55;;;19.70;99.90;;;;;;5022079;28;20033;-61
2022/07/31 05:34:04;;;;;;;9.23;3.85;;;19.80;99.90;;;;;;5021540;28;20056;-61
2022/07/31 05:36:29;;;;;;;5.10;3.10;;;19.90;99.90;;;;;;5025292;28;20033;-61
2022/07/31 05:38:55;;;;;;;4.72;2.72;;;20.00;99.90;;;;;;5027559;28;20026;-62
2022/07/31 05:41:20;;;;;;;5.22;2.90;;;20.10;99.90;;;;;;5029102;28;20087;-61
2022/07/31 05:43:46;;;;;;;12.40;3.22;;;20.20;99.90;;;;;;5029835;28;20377;-61
2022/07/31 05:46:13;;;;;;;7.28;2.95;;;20.30;99.90;;;;;;5029449;28;20429;-59
2022/07/31 05:48:40;;;;;;;4.10;2.67;;;20.40;99.90;;;;;;5030047;28;20120;-62
2022/07/31 05:51:09;;;;;;;4.35;2.75;;;20.40;99.90;;;;;;5028677;28;20060;-61
2022/07/31 05:53:35;;;;;;;4.35;2.40;;;20.40;99.90;;;;;;5028912;28;20041;-62
2022/07/31 05:56:00;;;;;;;5.80;2.88;;;20.50;99.90;;;;;;5026651;28;20033;-62
2022/07/31 05:58:26;;;;;;;4.35;2.20;;;20.50;99.90;;;;;;5028263;28;20032;-59
2022/07/31 06:00:51;;;;;;;8.05;2.47;;;20.60;99.90;;;;;;5029589;28;20018;-62
2022/07/31 06:03:23;;;;;;;4.53;2.38;;;20.70;99.90;;;;;;5029494;28;20061;-60
2022/07/31 06:05:49;;;;;;;4.82;2.58;;;20.60;99.90;;;;;;5025767;28;20045;-61
2022/07/31 06:08:15;;;;;;;4.55;2.65;;;20.70;99.90;;;;;;5029698;28;20095;-61
2022/07/31 06:10:41;;;;;;;7.90;3.05;;;20.80;99.90;;;;;;5029519;28;20033;-62
2022/07/31 06:13:06;;;;;;;3.35;2.03;;;20.80;99.90;;;;;;5028455;28;20029;-62
2022/07/31 06:15:32;;;;;;;3.75;2.15;;;20.80;99.90;;;;;;5023537;28;20463;-62
2022/07/31 06:17:58;;;;;;;10.23;2.65;;;20.90;99.90;;;;;;5025409;28;20416;-61
2022/07/31 06:20:24;;;;;;;4.78;2.72;;;20.90;99.90;;;;;;5025091;28;20026;-61
2022/07/31 06:22:50;;;;;;;6.25;3.10;;;21.00;99.90;;;;;;5027288;28;20737;-60
2022/07/31 06:25:15;;;;;;;6.80;2.47;;;21.00;99.90;;;;;;5028612;28;20038;-61
2022/07/31 06:27:41;;;;;;;7.53;2.88;;;21.10;99.90;;;;;;5027887;28;20036;-59
2022/07/31 06:30:07;;;;;;;7.28;3.08;;;21.10;99.90;;;;;;5025375;28;20033;-62
2022/07/31 06:32:33;;;;;;;6.10;2.97;;;21.00;99.90;;;;;;5027708;28;20527;-62
2022/07/31 06:34:59;;;;;;;4.38;2.25;;;21.10;99.90;;;;;;5028004;28;20111;-62
2022/07/31 06:37:25;;;;;;;4.05;2.15;;;21.20;99.90;;;;;;5029751;28;20100;-61
2022/07/31 06:39:51;;;;;;;3.60;1.92;;;21.20;99.90;;;;;;5026746;28;20038;-62
2022/07/31 06:42:21;;;;;;;5.95;2.58;;;21.30;99.90;;;;;;5029337;28;20499;-62
2022/07/31 06:44:47;;;;;;;5.03;2.20;;;21.20;99.90;;;;;;5028626;28;20057;-62
2022/07/31 06:47:14;;;;;;;6.30;2.53;;;21.20;99.90;;;;;;5028885;28;20068;-61
2022/07/31 06:49:39;;;;;;;5.82;2.60;;;21.20;99.90;;;;;;5025657;28;20041;-62
2022/07/31 06:52:05;;;;;;;6.90;2.08;;;21.10;99.90;;;;;;5028920;28;20061;-62
2022/07/31 06:54:31;;;;;;;4.57;2.17;;;21.10;99.90;;;;;;5029710;28;20059;-60
2022/07/31 06:56:57;;;;;;;3.25;2.22;;;21.20;99.90;;;;;;5028732;28;20040;-61
2022/07/31 06:59:23;;;;;;;5.47;2.17;;;21.30;99.90;;;;;;5029172;28;20242;-61
2022/07/31 07:01:48;;;;;;;7.70;2.05;;;21.20;99.90;;;;;;5028475;28;20042;-61
2022/07/31 07:04:14;;;;;;;4.75;2.53;;;21.30;99.90;;;;;;5028915;28;20029;-59
2022/07/31 07:06:39;;;;;;;3.70;1.90;;;21.40;99.90;;;;;;5028476;28;20068;-59
2022/07/31 07:09:05;;;;;;;6.22;2.60;;;21.60;99.90;;;;;;5028839;28;20141;-60
2022/07/31 07:11:30;;;;;;;5.85;2.42;;;21.50;99.90;;;;;;5031809;28;20036;-62
2022/07/31 07:13:56;;;;;;;3.15;2.17;;;21.40;99.90;;;;;;5031895;28;20034;-62
2022/07/31 07:16:21;;;;;;;4.45;2.35;;;21.40;99.90;;;;;;5031810;28;20033;-62
2022/07/31 07:18:47;;;;;;;4.47;2.47;;;21.40;99.90;;;;;;5031629;28;20029;-61
2022/07/31 07:21:13;;;;;;;3.90;2.50;;;21.60;99.90;;;;;;5032261;28;20041;-62
2022/07/31 07:23:39;;;;;;;6.10;2.63;;;21.60;99.90;;;;;;5032211;28;20048;-61
2022/07/31 07:26:05;;;;;;;3.88;2.40;;;21.70;99.90;;;;;;5031989;28;20036;-62
2022/07/31 07:28:30;;;;;;;5.63;3.28;;;21.40;99.90;;;;;;5026692;28;20029;-60
2022/07/31 07:30:56;;;;;;;6.32;2.45;;;21.30;99.90;;;;;;5031646;28;20029;-62
2022/07/31 07:33:22;;;;;;;10.23;2.92;;;21.40;99.90;;;;;;5030609;28;20495;-61
2022/07/31 07:35:47;;;;;;;4.50;3.00;;;21.50;99.90;;;;;;5031988;28;20028;-61
2022/07/31 07:38:13;;;;;;;2.88;2.03;;;21.50;99.90;;;;;;5032635;28;20033;-61
2022/07/31 07:40:39;;;;;;;6.43;2.47;;;21.50;99.90;;;;;;5032065;28;20029;-60
2022/07/31 07:43:04;;;;;;;4.07;2.20;;;21.50;99.90;;;;;;5031022;28;20072;-62
2022/07/31 07:45:30;;;;;;;3.13;2.58;;;21.50;99.90;;;;;;5032395;28;20116;-63
2022/07/31 07:47:56;;;;;;;2.88;2.03;;;21.50;99.90;;;;;;5031513;28;20029;-61
2022/07/31 07:50:21;;;;;;;3.15;2.53;;;21.50;99.90;;;;;;5026904;28;20024;-60
2022/07/31 07:52:47;;;;;;;3.22;2.15;;;21.50;99.90;;;;;;5030866;28;20810;-60
2022/07/31 07:55:12;;;;;;;4.03;2.33;;;21.50;99.90;;;;;;5031769;28;20030;-60
2022/07/31 07:57:38;;;;;;;6.72;2.33;;;21.60;99.90;;;;;;5028552;28;20549;-61
2022/07/31 08:00:07;;;;;;;3.08;2.05;;;21.70;99.90;;;;;;5029432;28;20030;-61
2022/07/31 08:02:33;;;;;;;4.35;2.30;;;21.70;99.90;;;;;;5030138;28;20029;-61
2022/07/31 08:04:59;;;;;;;5.45;1.90;;;21.60;99.90;;;;;;5031379;28;20025;-61
2022/07/31 08:07:29;;;;;;;5.45;1.85;;;21.80;99.90;;;;;;5031606;28;20368;-62
2022/07/31 08:09:58;;;;;;;5.38;1.88;;;21.90;99.90;;;;;;5031252;28;20029;-61
2022/07/31 08:12:24;;;;;;;3.22;1.85;;;21.90;99.90;;;;;;5031008;28;20406;-62
2022/07/31 08:14:51;;;;;;;2.30;1.83;;;22.10;99.90;;;;;;5030874;28;20032;-61
2022/07/31 08:17:17;;;;;;;4.90;2.10;;;22.20;99.90;;;;;;5030015;28;20041;-61
2022/07/31 08:19:43;;;;;;;3.90;1.95;;;22.00;99.90;;;;;;5031333;28;20036;-60
2022/07/31 08:22:09;;;;;;;3.00;2.20;;;22.20;99.90;;;;;;5030182;28;20025;-60
2022/07/31 08:24:34;;;;;;;3.53;1.80;;;22.30;99.90;;;;;;5031283;28;20397;-60
2022/07/31 08:29:44;;;;;;;4.07;1.65;;;22.50;99.90;;;;;;5030455;28;20152;-59
2022/07/31 08:32:13;;;;;;;3.55;2.15;;;22.70;99.90;;;;;;5029204;28;20462;-59
2022/07/31 08:34:39;;;;;;;2.22;1.65;;;22.80;99.90;;;;;;5030257;28;20029;-59
2022/07/31 08:37:05;;;;;;;1.95;1.55;;;22.70;99.90;;;;;;5027150;28;20499;-60
2022/07/31 08:39:35;;;;;;;5.82;1.45;;;22.90;99.90;;;;;;5028599;28;20112;-58
2022/07/31 08:42:08;;;;;;;1.38;1.15;;;23.00;99.90;;;;;;5026559;28;20032;-59
2022/07/31 08:44:42;;;;;;;2.47;1.13;;;23.10;99.90;;;;;;5027376;28;20501;-59
2022/07/31 08:47:09;;;;;;;3.08;1.45;;;23.10;99.90;;;;;;5030904;28;20464;-58
2022/07/31 08:49:45;;;;;;;1.73;1.10;;;23.20;99.90;;;;;;5024856;28;20025;-59
2022/07/31 08:52:17;;;;;;;2.55;1.33;;;23.20;99.90;;;;;;5030902;28;20110;-59
2022/07/31 08:54:44;;;;;;;2.80;1.23;;;23.30;99.90;;;;;;5025796;28;20028;-60
2022/07/31 08:57:11;;;;;;;1.77;0.95;;;23.40;99.90;;;;;;5028342;28;20049;-58
2022/07/31 08:59:37;;;;;;;3.58;1.02;;;23.50;99.90;;;;;;5025664;28;20112;-58
2022/07/31 09:02:04;;;;;;;2.08;1.10;;;23.70;99.90;;;;;;5027856;28;20018;-59
2022/07/31 09:04:30;;;;;;;1.25;1.15;;;23.70;99.90;;;;;;5026732;28;20017;-59
2022/07/31 09:06:59;;;;;;;3.83;1.10;;;23.80;99.90;;;;;;5027432;28;20041;-59
2022/07/31 09:09:25;;;;;;;0.82;0.77;;;23.80;99.90;;;;;;5025724;28;20033;-59
2022/07/31 09:11:53;;;;;;;1.23;1.13;;;23.80;99.90;;;;;;5020716;28;20040;-57
2022/07/31 09:14:27;;;;;;;1.60;1.20;;;23.80;99.90;;;;;;5025146;28;20415;-60
2022/07/31 09:16:53;;;;;;;4.72;3.08;;;23.80;99.90;;;;;;5023232;28;20029;-58
2022/07/31 09:19:21;;;;;;;1.38;0.93;;;23.90;99.90;;;;;;5024822;28;20025;-60
2022/07/31 09:21:47;;;;;;;2.28;1.30;;;24.00;99.90;;;;;;5025820;28;20025;-58
2022/07/31 09:24:26;;;;;;;1.35;1.17;;;24.10;99.90;;;;;;5022482;28;20025;-60
2022/07/31 09:27:04;;;;;;;3.60;1.20;;;23.90;99.90;;;;;;5023426;28;20038;-57
2022/07/31 09:29:40;;;;;;;1.92;0.98;;;23.80;99.90;;;;;;5017998;28;20029;-59
2022/07/31 09:32:17;;;;;;;2.67;1.10;;;23.90;99.90;;;;;;5021419;28;20025;-57
2022/07/31 09:34:44;;;;;;;0.88;0.88;;;23.90;99.90;;;;;;5022770;28;20033;-60
2022/07/31 09:37:15;;;;;;;1.95;1.30;;;23.70;99.90;;;;;;5020788;28;20073;-61
2022/07/31 09:39:41;;;;;;;2.58;0.85;;;23.70;99.90;;;;;;5025493;28;20397;-59
2022/07/31 09:42:07;;;;;;;2.40;1.10;;;23.60;99.90;;;;;;5024401;28;20411;-59
2022/07/31 09:44:41;;;;;;;1.10;1.00;;;23.60;99.90;;;;;;5021248;28;20472;-58
2022/07/31 09:47:27;;;;;;;1.75;1.15;;;23.80;99.90;;;;;;5020197;28;20087;-58
2022/07/31 09:49:58;;;;;;;2.35;1.30;;;23.70;99.90;;;;;;5020914;28;20037;-56
2022/07/31 09:52:26;;;;;;;1.50;1.30;;;23.90;99.90;;;;;;5025226;28;20079;-59
2022/07/31 09:55:08;;;;;;;4.70;1.30;;;23.70;99.90;;;;;;5025628;28;20064;-57
2022/07/31 09:57:36;;;;;;;1.83;1.17;;;23.60;99.90;;;;;;5028723;28;20030;-59
2022/07/31 10:00:04;;;;;;;4.20;1.48;;;23.60;99.90;;;;;;5030097;28;20026;-58
2022/07/31 10:02:30;;;;;;;1.92;1.27;;;23.70;99.90;;;;;;5028202;28;20029;-58
2022/07/31 10:04:57;;;;;;;1.20;1.10;;;23.80;99.90;;;;;;5026084;28;20029;-56
2022/07/31 10:07:26;;;;;;;4.22;1.30;;;24.00;99.90;;;;;;5025993;28;20114;-57
2022/07/31 10:09:56;;;;;;;1.83;1.35;;;24.10;99.90;;;;;;5028344;28;20045;-57
2022/07/31 10:12:24;;;;;;;2.67;1.30;;;24.20;99.90;;;;;;5024758;28;20033;-57
2022/07/31 10:14:52;;;;;;;5.43;1.20;;;24.40;99.90;;;;;;5025312;28;20368;-55
2022/07/31 10:17:28;;;;;;;1.88;1.10;;;24.50;99.90;;;;;;5027956;28;20033;-57
2022/07/31 10:19:59;;;;;;;1.92;1.15;;;24.60;99.90;;;;;;5028004;28;20086;-59
2022/07/31 10:22:29;;;;;;;0.93;0.93;;;24.60;99.90;;;;;;5023888;28;20018;-57
2022/07/31 10:24:59;;;;;;;3.33;1.15;;;24.60;99.90;;;;;;5025311;28;20488;-58
2022/07/31 10:27:26;;;;;;;3.00;1.02;;;24.50;99.90;;;;;;5021083;28;20030;-54
2022/07/31 10:29:52;;;;;;;1.45;1.02;;;24.60;99.90;;;;;;5028702;28;20038;-58
2022/07/31 10:32:18;;;;;;;2.85;1.27;;;24.50;99.90;;;;;;5023170;28;20037;-58
2022/07/31 10:34:44;;;;;;;1.45;1.05;;;24.60;99.90;;;;;;5029406;28;20243;-54
2022/07/31 10:37:17;;;;;;;1.80;1.00;;;24.90;99.90;;;;;;5026873;28;20041;-58
2022/07/31 10:40:08;;;;;;;2.13;1.25;;;25.00;99.90;;;;;;5023950;28;20041;-59
2022/07/31 10:42:46;;;;;;;5.18;1.35;;;25.00;99.90;;;;;;5014474;28;20041;-58
2022/07/31 10:45:13;;;;;;;3.30;1.00;;;25.00;99.90;;;;;;5027242;28;20136;-57
2022/07/31 10:47:39;;;;;;;1.73;1.30;;;25.20;99.90;;;;;;5030208;28;20033;-58
2022/07/31 10:50:06;;;;;;;4.60;1.60;;;25.40;99.90;;;;;;5029019;28;20039;-58
2022/07/31 10:52:34;;;;;;;3.78;1.20;;;25.50;99.90;;;;;;5028136;28;20064;-59
2022/07/31 10:55:00;;;;;;;2.45;1.10;;;25.80;99.90;;;;;;5030574;28;20029;-54
2022/07/31 10:57:33;;;;;;;3.25;1.35;;;26.00;99.90;;;;;;5025838;28;20510;-58
2022/07/31 11:00:18;;;;;;;1.80;1.08;;;26.10;99.90;;;;;;5025749;28;20422;-58
2022/07/31 11:02:44;;;;;;;2.33;1.38;;;25.70;99.90;;;;;;5025952;28;20038;-58
2022/07/31 11:05:12;;;;;;;3.17;1.25;;;25.50;99.90;;;;;;5025732;28;20476;-59
2022/07/31 11:07:43;;;;;;;2.95;1.27;;;25.90;99.90;;;;;;5025209;28;20026;-57
2022/07/31 11:10:18;;;;;;;3.03;1.70;;;26.40;99.90;;;;;;5029417;28;20091;-56
2022/07/31 11:12:44;;;;;;;4.07;1.52;;;26.50;99.90;;;;;;5027707;28;20345;-58
2022/07/31 11:15:19;;;;;;;1.83;1.10;;;26.60;99.90;;;;;;5024109;28;20065;-58
2022/07/31 11:17:44;;;;;;;1.50;0.95;;;26.20;99.90;;;;;;5008236;28;20029;-59
2022/07/31 11:20:22;;;;;;;1.67;1.10;;;26.90;99.90;;;;;;5025424;28;20041;-56
2022/07/31 11:23:03;;;;;;;2.33;1.08;;;27.20;99.90;;;;;;5027080;28;20067;-55
2022/07/31 11:25:32;;;;;;;2.17;1.38;;;27.20;99.90;;;;;;5023506;28;20080;-57
2022/07/31 11:28:09;;;;;;;4.70;1.38;;;26.60;99.90;;;;;;5024963;28;20139;-57
2022/07/31 11:30:53;;;;;;;3.40;1.42;;;26.50;99.90;;;;;;5025930;28;20038;-59
2022/07/31 11:33:36;;;;;;;3.70;1.35;;;26.70;99.90;;;;;;5027733;28;20033;-59
2022/07/31 11:36:16;;;;;;;2.70;1.20;;;26.90;99.90;;;;;;5028257;28;20025;-58
2022/07/31 11:38:51;;;;;;;3.95;1.40;;;26.80;99.90;;;;;;5024092;28;20030;-60
2022/07/31 11:41:17;;;;;;;;;;;26.80;99.90;;;;;;5029829;28;20033;-58
2022/07/31 11:43:48;;;;;;;4.07;1.50;;;26.70;99.90;;;;;;5028401;28;19913;-58
2022/07/31 11:46:36;;;;;;;4.47;1.40;;;26.60;99.90;;;;;;5025140;28;20160;-58
2022/07/31 11:49:03;;;;;;;2.60;1.60;;;26.80;99.90;;;;;;5027116;28;20025;-59
2022/07/31 11:51:29;;;;;;;2.55;1.30;;;26.80;99.90;;;;;;5029409;28;20092;-58
2022/07/31 11:53:55;;;;;;;3.63;1.52;;;26.90;99.90;;;;;;5030037;28;20029;-58
2022/07/31 11:56:22;;;;;;;6.10;1.25;;;26.80;99.90;;;;;;5028179;28;20403;-60
2022/07/31 11:58:49;;;;;;;4.85;1.70;;;26.90;99.90;;;;;;5028579;28;20037;-59
2022/07/31 12:01:15;;;;;;;2.20;1.40;;;27.00;99.90;;;;;;5030347;28;20108;-58
2022/07/31 12:03:41;;;;;;;4.00;1.40;;;26.90;99.90;;;;;;5028757;28;20035;-59
2022/07/31 12:06:08;;;;;;;5.60;1.45;;;27.10;99.90;;;;;;5024706;28;20688;-56
2022/07/31 12:08:34;;;;;;;3.47;1.70;;;27.40;99.90;;;;;;5025429;28;20114;-57
2022/07/31 12:11:01;;;;;;;5.20;1.48;;;27.70;99.90;;;;;;5027179;28;20037;-60
2022/07/31 12:13:28;;;;;;;2.60;1.50;;;28.00;99.90;;;;;;5024472;28;20025;-59
2022/07/31 12:16:04;;;;;;;3.55;1.50;;;28.10;99.90;;;;;;5024147;28;20037;-60
2022/07/31 12:18:55;;;;;;;3.10;1.10;;;28.00;99.90;;;;;;5018471;28;20404;-58
2022/07/31 12:21:29;;;;;;;4.10;1.42;;;27.80;99.90;;;;;;5015684;28;20030;-58
2022/07/31 12:23:54;;;;;;;;;;;27.60;99.90;;;;;;5022562;28;20064;-57
2022/07/31 12:26:25;;;;;;;1.90;1.60;;;27.50;99.90;;;;;;5024696;28;19948;-57
2022/07/31 12:29:09;;;;;;;2.78;1.35;;;27.60;99.90;;;;;;5019126;28;20033;-60
2022/07/31 12:31:52;;;;;;;3.70;1.48;;;27.60;99.90;;;;;;5020195;28;20151;-58
2022/07/31 12:34:39;;;;;;;3.65;1.33;;;27.40;99.90;;;;;;5027004;28;20113;-58
2022/07/31 12:37:12;;;;;;;7.35;1.60;;;27.60;99.90;;;;;;5018347;28;20034;-57
2022/07/31 12:39:51;;;;;;;2.50;1.75;;;27.50;99.90;;;;;;5026346;28;20439;-59
2022/07/31 12:42:37;;;;;;;8.68;1.50;;;27.40;99.90;;;;;;5025099;28;20030;-57
2022/07/31 12:45:04;;;;;;;1.60;1.50;;;27.40;99.90;;;;;;5023856;28;20049;-59
2022/07/31 12:47:31;;;;;;;4.93;1.30;;;27.30;99.90;;;;;;5028815;28;20377;-59
2022/07/31 12:49:59;;;;;;;4.15;1.67;;;27.30;99.90;;;;;;5025678;28;20162;-59
2022/07/31 12:52:27;;;;;;;2.78;1.50;;;27.80;99.90;;;;;;5028295;28;20395;-60